Time;durP1;ratioP1;P1;durP2;ratioP2;P2;SDS_P1;SDS_P2;PMS_P1;PMS_P2;Temp;Humidity;BMP_temperature;BMP_pressure;BME280_temperature;BME280_humidity;BME280_pressure;Samples;Min_cycle;Max_cycle;Signal;HPM_P1;HPM_P2
2023/03/25 00:00:16;;;;;;;18.50;13.07;;;;;;;10.16;100.00;100979.31;2080942;28;20199;-61
2023/03/25 00:01:18;;;;;;;13.80;10.37;;;;;;;9.93;100.00;100948.78;2081395;28;20208;-61
2023/03/25 00:02:22;;;;;;;12.87;10.73;;;;;;;9.94;100.00;100960.66;2080639;28;20447;-61
2023/03/25 00:03:25;;;;;;;14.87;10.70;;;;;;;9.99;100.00;100971.25;2081324;28;20435;-61
2023/03/25 00:04:26;;;;;;;17.47;11.60;;;;;;;10.08;100.00;100977.84;2081308;28;20458;-61
2023/03/25 00:05:26;;;;;;;19.57;12.10;;;;;;;10.09;100.00;100973.09;2081156;28;20443;-61
2023/03/25 00:06:27;;;;;;;21.10;13.03;;;;;;;10.11;100.00;100968.72;2081483;28;20181;-61
2023/03/25 00:07:27;;;;;;;21.03;12.93;;;;;;;10.05;100.00;100964.81;2080559;28;20191;-61
2023/03/25 00:08:28;;;;;;;14.73;11.00;;;;;;;10.08;100.00;100968.75;2080947;28;20208;-61
2023/03/25 00:09:28;;;;;;;12.40;10.20;;;;;;;10.10;100.00;100972.66;2081282;28;20184;-61
2023/03/25 00:10:29;;;;;;;16.07;11.77;;;;;;;10.11;100.00;100976.22;2080471;28;20629;-62
2023/03/25 00:11:30;;;;;;;19.43;12.97;;;;;;;9.50;100.00;100878.72;2080546;28;20195;-62
2023/03/25 00:12:30;;;;;;;22.37;15.00;;;;;;;10.16;100.00;100981.28;2081280;28;20187;-61
2023/03/25 00:13:31;;;;;;;27.17;17.30;;;;;;;10.15;100.00;100979.72;2081065;28;20206;-61
2023/03/25 00:14:31;;;;;;;26.27;16.90;;;;;;;10.09;100.00;100973.88;2081362;28;20693;-61
2023/03/25 00:15:35;;;;;;;22.97;16.73;;;;;;;10.06;100.00;100977.50;2080998;28;20184;-61
2023/03/25 00:16:35;;;;;;;24.20;16.63;;;;;;;10.02;100.00;100973.16;2080811;28;20189;-61
2023/03/25 00:17:37;;;;;;;21.93;16.60;;;;;;;10.00;100.00;100975.59;2081220;28;20510;-61
2023/03/25 00:18:38;;;;;;;21.93;18.10;;;;;;;10.01;100.00;100974.38;2080697;28;20183;-61
2023/03/25 00:19:40;;;;;;;26.10;19.00;;;;;;;9.91;100.00;100959.50;2081139;28;20781;-62
2023/03/25 00:20:40;;;;;;;21.70;17.30;;;;;;;9.94;100.00;100978.03;2079918;28;20543;-61
2023/03/25 00:21:43;;;;;;;27.63;18.17;;;;;;;9.88;100.00;100978.91;2081079;28;20497;-62
2023/03/25 00:22:44;;;;;;;18.30;14.43;;;;;;;9.86;100.00;100995.16;2081362;28;20185;-61
2023/03/25 00:23:45;;;;;;;18.60;15.00;;;;;;;9.77;100.00;100989.38;2081035;28;20459;-61
2023/03/25 00:24:45;;;;;;;22.57;15.60;;;;;;;9.82;100.00;100980.59;2081103;28;20463;-61
2023/03/25 00:25:46;;;;;;;17.70;12.97;;;;;;;9.81;100.00;100977.06;2080348;28;20681;-61
2023/03/25 00:26:47;;;;;;;14.47;11.07;;;;;;;9.75;100.00;100977.94;2081186;28;20252;-61
2023/03/25 00:27:49;;;;;;;12.67;9.93;;;;;;;9.65;100.00;100970.56;2080729;28;20486;-62
2023/03/25 00:28:50;;;;;;;13.67;10.17;;;;;;;9.67;100.00;100974.50;2081353;28;20195;-61
2023/03/25 00:29:51;;;;;;;19.50;11.60;;;;;;;9.65;100.00;100965.03;2080021;28;20431;-62
2023/03/25 00:30:52;;;;;;;15.33;11.20;;;;;;;9.69;100.00;100968.56;2079878;28;20220;-61
2023/03/25 00:31:53;;;;;;;15.47;10.67;;;;;;;9.67;100.00;100974.50;2080343;28;20192;-62
2023/03/25 00:32:53;;;;;;;12.00;9.37;;;;;;;9.74;100.00;100971.63;2081018;28;20455;-62
2023/03/25 00:33:53;;;;;;;12.97;10.20;;;;;;;9.63;100.00;100956.38;2080449;28;20622;-61
2023/03/25 00:34:54;;;;;;;13.07;10.10;;;;;;;9.64;100.00;100957.94;2081157;28;20174;-62
2023/03/25 00:35:58;;;;;;;14.87;11.10;;;;;;;9.67;100.00;100957.88;2080959;28;20184;-62
2023/03/25 00:36:58;;;;;;;14.23;11.67;;;;;;;9.71;100.00;100958.63;2081180;28;20245;-62
2023/03/25 00:37:59;;;;;;;17.53;13.20;;;;;;;9.73;100.00;100958.97;2080383;28;20504;-61
2023/03/25 00:38:59;;;;;;;18.37;12.87;;;;;;;9.27;100.00;100875.13;2080583;28;20688;-61
2023/03/25 00:39:59;;;;;;;15.83;11.57;;;;;;;9.67;100.00;100941.28;2080330;28;20189;-62
2023/03/25 00:41:24;;;;;;;13.67;10.20;;;;;;;9.55;100.00;100947.41;2080683;28;20230;-61
2023/03/25 00:42:24;;;;;;;16.00;12.00;;;;;;;9.61;100.00;100944.94;2081095;28;20657;-62
2023/03/25 00:43:25;;;;;;;17.17;13.10;;;;;;;9.71;100.00;100955.06;2080269;28;21041;-61
2023/03/25 00:44:25;;;;;;;14.90;12.60;;;;;;;9.75;100.00;100956.59;2080210;28;20395;-62
2023/03/25 00:45:27;;;;;;;20.17;13.37;;;;;;;9.74;100.00;100937.63;2080432;28;20315;-61
2023/03/25 00:46:30;;;;;;;14.90;12.17;;;;;;;9.77;100.00;100936.78;2077678;28;20288;-61
2023/03/25 00:47:31;;;;;;;16.30;10.50;;;;;;;9.82;100.00;100941.84;2080006;28;20485;-61
2023/03/25 00:48:31;;;;;;;18.40;11.20;;;;;;;8.99;100.00;100817.44;2080618;28;20525;-61
2023/03/25 00:49:32;;;;;;;15.33;10.83;;;;;;;9.76;100.00;100936.00;2073530;28;20196;-62
2023/03/25 00:50:32;;;;;;;17.93;11.40;;;;;;;9.81;100.00;100935.53;2077705;28;20239;-61
2023/03/25 00:51:32;;;;;;;15.53;11.50;;;;;;;9.85;100.00;100941.00;2080791;28;20387;-61
2023/03/25 00:52:33;;;;;;;15.57;11.07;;;;;;;9.92;100.00;100929.81;2080480;28;20616;-61
2023/03/25 00:53:35;;;;;;;14.43;10.47;;;;;;;9.91;100.00;100934.59;2080381;28;20321;-61
2023/03/25 00:54:36;;;;;;;15.43;11.30;;;;;;;9.89;100.00;100930.69;2079989;28;20693;-61
2023/03/25 00:55:37;;;;;;;13.93;11.50;;;;;;;9.76;100.00;100897.28;2079674;28;20523;-61
2023/03/25 00:56:37;;;;;;;14.00;10.97;;;;;;;9.96;100.00;100925.81;2080994;28;20438;-61
2023/03/25 00:57:38;;;;;;;16.27;10.80;;;;;;;9.25;100.00;100820.22;2080361;28;20216;-61
2023/03/25 00:58:39;;;;;;;15.57;11.57;;;;;;;10.02;100.00;100928.88;2080331;28;20207;-62
2023/03/25 00:59:39;;;;;;;16.03;12.03;;;;;;;10.00;100.00;100931.28;2080434;28;20682;-62
2023/03/25 01:00:40;;;;;;;16.63;12.50;;;;;;;9.69;100.00;100891.81;2080089;28;20447;-61
2023/03/25 01:01:42;;;;;;;16.03;11.50;;;;;;;10.00;100.00;100931.28;2079571;28;20295;-61
2023/03/25 01:02:44;;;;;;;15.17;11.47;;;;;;;9.31;100.00;100835.13;2080827;28;20247;-61
2023/03/25 01:03:45;;;;;;;15.80;11.63;;;;;;;9.96;100.00;100931.34;2080386;28;21111;-61
2023/03/25 01:04:48;;;;;;;16.20;10.83;;;;;;;9.96;100.00;100934.13;2080862;28;20800;-61
2023/03/25 01:05:49;;;;;;;19.87;10.87;;;;;;;9.42;100.00;100848.78;2080470;28;20190;-61
2023/03/25 01:06:50;;;;;;;23.17;11.97;;;;;;;9.93;100.00;100936.91;2080800;28;20438;-61
2023/03/25 01:07:51;;;;;;;21.93;11.70;;;;;;;9.92;100.00;100933.38;2079165;28;20479;-61
2023/03/25 01:08:51;;;;;;;16.53;11.50;;;;;;;9.90;100.00;100935.78;2079592;28;20439;-62
2023/03/25 01:09:52;;;;;;;13.17;10.40;;;;;;;9.87;100.00;100936.63;2079673;28;20717;-62
2023/03/25 01:10:53;;;;;;;17.80;10.00;;;;;;;9.87;100.00;100933.06;2080230;28;20187;-61
2023/03/25 01:11:53;;;;;;;16.40;10.60;;;;;;;9.78;100.00;100910.69;2080611;28;20188;-61
2023/03/25 01:12:55;;;;;;;17.73;10.87;;;;;;;9.90;100.00;100929.47;2074330;28;20193;-62
2023/03/25 01:13:58;;;;;;;21.10;11.33;;;;;;;9.89;100.00;100925.13;2080160;28;20196;-61
2023/03/25 01:14:59;;;;;;;16.23;11.13;;;;;;;9.45;100.00;100862.59;2080426;28;20435;-62
2023/03/25 01:16:00;;;;;;;14.97;10.63;;;;;;;9.82;100.00;100905.84;2080131;28;20493;-61
2023/03/25 01:17:00;;;;;;;15.50;10.43;;;;;;;9.80;100.00;100916.59;2080727;28;20474;-62
2023/03/25 01:18:01;;;;;;;14.13;10.60;;;;;;;9.59;100.00;100884.47;2079947;28;20197;-61
2023/03/25 01:19:01;;;;;;;15.10;11.10;;;;;;;9.74;100.00;100913.50;2080087;28;20721;-61
2023/03/25 01:20:05;;;;;;;15.20;11.40;;;;;;;9.68;100.00;100917.94;2079979;28;20259;-61
2023/03/25 01:21:06;;;;;;;15.57;11.37;;;;;;;9.64;100.00;100910.91;2080250;28;20181;-61
2023/03/25 01:22:07;;;;;;;14.80;11.17;;;;;;;9.45;100.00;100904.09;2077325;28;20842;-61
2023/03/25 01:23:08;;;;;;;13.67;10.07;;;;;;;9.54;100.00;100926.44;2080027;28;20536;-62
2023/03/25 01:24:11;;;;;;;15.77;11.10;;;;;;;8.83;100.00;100826.38;2079432;28;20200;-61
2023/03/25 01:25:12;;;;;;;13.23;10.10;;;;;;;9.44;100.00;100919.09;2080478;28;20479;-61
2023/03/25 01:26:13;;;;;;;14.47;11.20;;;;;;;8.78;100.00;100828.81;2080254;28;20570;-61
2023/03/25 01:27:13;;;;;;;13.93;11.50;;;;;;;9.40;100.00;100926.69;2080513;28;20192;-61
2023/03/25 01:28:13;;;;;;;14.40;10.90;;;;;;;9.39;100.00;100932.63;2078575;28;20588;-62
2023/03/25 01:29:19;;;;;;;17.73;11.57;;;;;;;9.35;100.00;100926.34;2080270;28;20205;-61
2023/03/25 01:30:20;;;;;;;15.17;11.03;;;;;;;9.35;100.00;100932.69;2079609;28;20413;-61
2023/03/25 01:31:28;;;;;;;15.13;11.27;;;;;;;9.03;100.00;100881.78;2080706;28;20423;-61
2023/03/25 01:32:29;;;;;;;14.77;10.73;;;;;;;9.20;100.00;100934.06;2079983;28;20173;-61
2023/03/25 01:33:31;;;;;;;15.20;10.33;;;;;;;9.15;100.00;100930.97;2074757;28;20489;-61
2023/03/25 01:34:32;;;;;;;14.23;9.97;;;;;;;9.09;100.00;100921.56;2080453;28;20249;-61
2023/03/25 01:35:32;;;;;;;12.80;10.73;;;;;;;9.11;100.00;100931.00;2079984;28;20482;-61
2023/03/25 01:36:35;;;;;;;13.43;10.70;;;;;;;9.12;100.00;100931.81;2079946;28;20673;-61
2023/03/25 01:37:35;;;;;;;12.43;10.35;;;;;;;9.07;100.00;100912.94;2080005;28;20277;-61
2023/03/25 01:38:36;;;;;;;15.53;10.43;;;;;;;8.99;100.00;100901.16;2076328;28;20273;-62
2023/03/25 01:39:37;;;;;;;12.97;9.80;;;;;;;9.16;100.00;100925.03;2073040;28;20673;-62
2023/03/25 01:40:37;;;;;;;13.00;10.43;;;;;;;9.17;100.00;100925.81;2079543;28;20665;-61
2023/03/25 01:41:38;;;;;;;15.67;10.80;;;;;;;8.82;100.00;100868.22;2080282;28;20262;-62
2023/03/25 01:42:38;;;;;;;16.13;12.10;;;;;;;9.20;100.00;100924.97;2072609;28;20208;-61
2023/03/25 01:43:39;;;;;;;20.37;12.83;;;;;;;9.18;100.00;100924.63;2078673;28;20252;-61
2023/03/25 01:44:39;;;;;;;18.23;12.53;;;;;;;9.18;100.00;100924.63;2078154;28;20201;-62
2023/03/25 01:45:40;;;;;;;22.57;12.23;;;;;;;8.79;100.00;100869.84;2079798;28;20199;-61
2023/03/25 01:46:44;;;;;;;25.43;12.97;;;;;;;9.15;100.00;100917.13;2079199;28;20195;-61
2023/03/25 01:47:47;;;;;;;23.00;13.10;;;;;;;9.16;100.00;100927.78;2079611;28;20689;-62
2023/03/25 01:48:48;;;;;;;25.13;12.93;;;;;;;9.17;100.00;100914.75;2079179;28;20528;-62
2023/03/25 01:49:49;;;;;;;21.23;12.83;;;;;;;9.17;100.00;100909.22;2079327;28;20430;-62
2023/03/25 01:50:54;;;;;;;27.00;13.07;;;;;;;9.16;100.00;100913.97;2080431;28;20424;-61
2023/03/25 01:52:15;;;;;;;19.93;11.90;;;;;;;9.14;100.00;100899.78;2072394;28;20174;-61
2023/03/25 01:53:16;;;;;;;14.40;11.30;;;;;;;9.01;100.00;100884.16;2072652;28;20999;-61
2023/03/25 01:54:16;;;;;;;20.90;12.37;;;;;;;9.07;100.00;100901.88;2080304;28;20835;-61
2023/03/25 01:55:19;;;;;;;18.20;12.07;;;;;;;9.10;100.00;100901.81;2080392;28;20212;-61
2023/03/25 01:56:25;;;;;;;17.73;10.97;;;;;;;9.16;100.00;100910.41;2079976;28;20188;-61
2023/03/25 01:57:25;;;;;;;13.33;10.63;;;;;;;9.18;100.00;100910.78;2075710;28;20992;-61
2023/03/25 01:58:29;;;;;;;15.80;11.63;;;;;;;9.16;100.00;100899.34;2076845;28;20541;-61
2023/03/25 01:59:30;;;;;;;12.23;10.23;;;;;;;9.16;100.00;100904.88;2079808;28;20837;-62
2023/03/25 02:00:31;;;;;;;12.87;10.27;;;;;;;9.18;100.00;100903.25;2078987;28;20872;-61
2023/03/25 02:01:31;;;;;;;13.13;9.90;;;;;;;9.11;100.00;100883.22;2080092;28;20587;-61
2023/03/25 02:02:35;;;;;;;12.87;10.20;;;;;;;9.22;100.00;100901.25;2080219;28;20189;-62
2023/03/25 02:03:36;;;;;;;14.40;10.13;;;;;;;9.27;100.00;100900.78;2079920;28;20236;-61
2023/03/25 02:04:57;;;;;;;16.03;10.53;;;;;;;9.27;100.00;100900.00;2080242;28;21006;-61
2023/03/25 02:06:04;;;;;;;15.40;10.20;;;;;;;8.43;100.00;100768.50;2072262;28;20250;-62
2023/03/25 02:07:07;;;;;;;18.63;11.30;;;;;;;9.28;100.00;100902.34;2080117;28;20514;-61
2023/03/25 02:08:08;;;;;;;18.47;11.37;;;;;;;9.29;100.00;100897.59;2079735;28;20433;-61
2023/03/25 02:09:10;;;;;;;14.87;11.13;;;;;;;9.29;100.00;100897.59;2080240;28;20450;-61
2023/03/25 02:10:11;;;;;;;17.67;10.70;;;;;;;9.23;100.00;100883.44;2079799;28;20285;-62
2023/03/25 02:11:12;;;;;;;14.40;10.30;;;;;;;9.26;100.00;100898.41;2079812;28;20509;-62
2023/03/25 02:12:12;;;;;;;16.00;10.87;;;;;;;9.19;100.00;100893.00;2076648;28;20471;-61
2023/03/25 02:13:14;;;;;;;16.00;10.43;;;;;;;9.27;100.00;100903.53;2079794;28;20193;-61
2023/03/25 02:14:20;;;;;;;16.40;10.53;;;;;;;9.26;100.00;100910.28;2079238;28;20258;-62
2023/03/25 02:15:21;;;;;;;16.30;10.90;;;;;;;9.28;100.00;100904.34;2080205;28;20421;-61
2023/03/25 02:16:46;;;;;;;16.73;10.80;;;;;;;9.27;100.00;100905.53;2080126;28;20964;-61
2023/03/25 02:18:02;;;;;;;20.63;10.73;;;;;;;9.24;100.00;100904.38;2079394;28;20207;-62
2023/03/25 02:19:12;;;;;;;24.70;11.70;;;;;;;9.26;100.00;100901.19;2080195;28;20509;-61
2023/03/25 02:20:30;;;;;;;19.73;11.23;;;;;;;9.26;100.00;100903.94;2079765;28;20435;-61
2023/03/25 02:21:44;;;;;;;14.93;10.77;;;;;;;9.26;100.00;100898.41;2079510;28;20526;-62
2023/03/25 02:23:09;;;;;;;18.53;10.23;;;;;;;9.24;100.00;100893.31;2080277;28;20442;-61
2023/03/25 02:24:34;;;;;;;16.77;11.13;;;;;;;9.26;100.00;100892.88;2079850;28;20491;-62
2023/03/25 02:25:53;;;;;;;18.23;10.23;;;;;;;9.25;100.00;100894.09;2072999;28;20876;-62
2023/03/25 02:27:14;;;;;;;18.30;10.57;;;;;;;9.27;100.00;100900.00;2074188;28;20419;-61
2023/03/25 02:28:29;;;;;;;17.00;10.73;;;;;;;9.23;100.00;100894.50;2079754;28;20441;-61
2023/03/25 02:30:05;;;;;;;16.03;10.33;;;;;;;9.22;100.00;100903.25;2076329;28;20450;-61
2023/03/25 02:31:41;;;;;;;13.60;10.37;;;;;;;8.80;100.00;100832.72;2072126;28;20464;-61
2023/03/25 02:33:04;;;;;;;15.98;11.18;;;;;;;9.20;100.00;100894.56;2074820;28;20974;-61
2023/03/25 02:34:13;;;;;;;14.57;10.60;;;;;;;9.19;100.00;100896.56;2079675;28;20194;-62
2023/03/25 02:35:51;;;;;;;19.07;10.30;;;;;;;9.21;100.00;100887.81;2079761;28;20450;-61
2023/03/25 02:37:00;;;;;;;15.23;10.70;;;;;;;9.13;100.00;100892.66;2072509;28;20407;-61
2023/03/25 02:38:08;;;;;;;14.95;10.55;;;;;;;9.26;100.00;100903.94;2077649;28;20428;-61
2023/03/25 02:39:34;;;;;;;14.83;9.93;;;;;;;9.24;100.00;100898.06;2076060;28;20208;-61
2023/03/25 02:41:00;;;;;;;14.50;10.47;;;;;;;9.22;100.00;100897.72;2071081;28;20411;-62
2023/03/25 02:42:13;;;;;;;15.90;10.70;;;;;;;9.23;100.00;100902.03;2074840;28;20958;-61
2023/03/25 02:43:38;;;;;;;14.87;10.40;;;;;;;9.25;100.00;100896.84;2075957;28;20540;-61
2023/03/25 02:44:46;;;;;;;14.53;10.20;;;;;;;9.22;100.00;100890.19;2080072;28;20835;-61
2023/03/25 02:45:51;;;;;;;16.77;11.23;;;;;;;9.13;100.00;100880.84;2079720;28;20454;-61
2023/03/25 02:46:56;;;;;;;15.53;10.23;;;;;;;9.17;100.00;100892.66;2074225;28;20447;-61
2023/03/25 02:48:04;;;;;;;17.60;10.07;;;;;;;9.19;100.00;100904.06;2076130;28;20486;-61
2023/03/25 02:49:11;;;;;;;15.53;9.87;;;;;;;9.18;100.00;100894.97;2079824;28;20485;-61
2023/03/25 02:50:21;;;;;;;17.00;10.23;;;;;;;9.19;100.00;100898.53;2079354;28;20461;-61
2023/03/25 02:51:39;;;;;;;14.93;11.07;;;;;;;9.14;100.00;100887.94;2076626;28;20434;-61
2023/03/25 02:52:48;;;;;;;15.93;10.20;;;;;;;9.26;100.00;100904.75;2076906;28;20512;-62
2023/03/25 02:53:50;;;;;;;14.87;9.50;;;;;;;8.75;100.00;100813.03;2078888;28;21025;-62
2023/03/25 02:54:56;;;;;;;15.13;10.23;;;;;;;9.26;100.00;100893.69;2079818;28;20461;-61
2023/03/25 02:56:02;;;;;;;13.93;10.13;;;;;;;9.26;100.00;100890.91;2079721;28;20453;-61
2023/03/25 02:57:04;;;;;;;14.27;10.37;;;;;;;9.29;100.00;100898.41;2079700;28;20479;-61
2023/03/25 02:58:09;;;;;;;17.40;10.23;;;;;;;9.32;100.00;100889.25;2079562;28;20482;-61
2023/03/25 02:59:13;;;;;;;17.77;10.03;;;;;;;9.28;100.00;100891.28;2079832;28;20530;-62
2023/03/25 03:00:17;;;;;;;13.53;9.80;;;;;;;9.25;100.00;100883.03;2077462;28;20433;-62
2023/03/25 03:01:18;;;;;;;14.07;10.33;;;;;;;9.23;100.00;100883.44;2074031;28;20434;-62
2023/03/25 03:02:20;;;;;;;15.43;10.57;;;;;;;9.25;100.00;100885.78;2079821;28;20425;-61
2023/03/25 03:03:21;;;;;;;15.63;10.60;;;;;;;9.22;100.00;100884.66;2080505;28;20177;-61
2023/03/25 03:04:21;;;;;;;14.73;9.63;;;;;;;9.25;100.00;100888.56;2079668;28;20458;-62
2023/03/25 03:05:34;;;;;;;14.10;9.73;;;;;;;9.27;100.00;100891.72;2080243;28;20629;-61
2023/03/25 03:06:41;;;;;;;17.07;9.90;;;;;;;9.28;100.00;100898.81;2078926;28;20209;-61
2023/03/25 03:07:46;;;;;;;15.77;10.45;;;;;;;9.28;100.00;100884.97;2078897;28;20441;-61
2023/03/25 03:08:50;;;;;;;15.70;9.97;;;;;;;9.25;100.00;100883.81;2079227;28;20192;-61
2023/03/25 03:09:59;;;;;;;17.57;10.50;;;;;;;9.16;100.00;100880.00;2078536;28;21028;-61
2023/03/25 03:11:21;;;;;;;18.10;9.73;;;;;;;9.14;100.00;100887.94;2079211;28;20955;-61
2023/03/25 03:12:37;;;;;;;13.87;9.60;;;;;;;9.10;100.00;100890.75;2079272;28;20525;-61
2023/03/25 03:14:09;;;;;;;15.63;9.90;;;;;;;9.11;100.00;100891.50;2078774;28;21002;-61
2023/03/25 03:15:36;;;;;;;21.53;10.30;;;;;;;9.01;100.00;100895.22;2079585;28;20855;-61
2023/03/25 03:16:57;;;;;;;15.53;10.63;;;;;;;8.95;100.00;100881.09;2079491;28;20821;-61
2023/03/25 03:18:09;;;;;;;17.03;10.10;;;;;;;8.93;100.00;100885.47;2071309;28;20594;-61
2023/03/25 03:19:33;;;;;;;13.03;10.23;;;;;;;8.84;100.00;100888.72;2079068;28;20439;-61
2023/03/25 03:20:43;;;;;;;14.07;9.97;;;;;;;8.82;100.00;100882.06;2075885;28;20947;-61
2023/03/25 03:21:54;;;;;;;12.30;10.17;;;;;;;8.74;100.00;100884.13;2071269;28;20432;-61
2023/03/25 03:23:04;;;;;;;15.37;10.33;;;;;;;8.56;100.00;100889.06;2079142;28;20414;-62
2023/03/25 03:24:23;;;;;;;14.07;10.00;;;;;;;8.55;100.00;100911.56;2078764;28;20413;-61
2023/03/25 03:25:34;;;;;;;16.63;10.47;;;;;;;8.56;100.00;100894.59;2079162;28;20512;-61
2023/03/25 03:26:58;;;;;;;15.03;9.77;;;;;;;8.57;100.00;100896.13;2080901;28;20522;-62
2023/03/25 03:28:06;;;;;;;13.00;10.20;;;;;;;8.50;100.00;100899.00;2079848;28;20445;-61
2023/03/25 03:29:24;;;;;;;17.03;10.10;;;;;;;8.37;100.00;100886.91;2080466;28;20505;-61
2023/03/25 03:30:31;;;;;;;13.85;10.00;;;;;;;8.51;100.00;100894.25;2079495;28;20431;-61
2023/03/25 03:31:46;;;;;;;17.13;10.70;;;;;;;8.52;100.00;100901.34;2080444;28;20249;-61
2023/03/25 03:33:02;;;;;;;16.20;10.40;;;;;;;8.55;100.00;100904.06;2080818;28;20161;-62
2023/03/25 03:34:13;;;;;;;16.75;10.48;;;;;;;8.55;100.00;100903.28;2078751;28;20472;-62
2023/03/25 03:35:23;;;;;;;13.63;10.30;;;;;;;8.54;100.00;100910.78;2080739;28;20218;-61
2023/03/25 03:36:31;;;;;;;12.53;10.23;;;;;;;8.61;100.00;100909.94;2078226;28;20907;-61
2023/03/25 03:37:40;;;;;;;14.63;9.93;;;;;;;8.07;100.00;100811.47;2073950;28;20506;-61
2023/03/25 03:38:47;;;;;;;17.30;10.80;;;;;;;8.66;100.00;100906.72;2079561;28;21269;-61
2023/03/25 03:39:48;;;;;;;12.25;10.40;;;;;;;8.64;100.00;100906.34;2080385;28;20424;-61
2023/03/25 03:40:54;;;;;;;13.63;10.90;;;;;;;8.62;100.00;100914.25;2073058;28;20178;-62
2023/03/25 03:42:04;;;;;;;18.73;11.45;;;;;;;8.50;100.00;100920.31;2080189;28;20506;-61
2023/03/25 03:43:12;;;;;;;15.45;11.13;;;;;;;8.41;100.00;100918.03;2080346;28;20237;-62
2023/03/25 03:44:17;;;;;;;13.43;10.52;;;;;;;7.81;100.00;100810.19;2081379;28;20196;-61
2023/03/25 03:45:24;;;;;;;14.18;10.85;;;;;;;8.57;100.00;100914.72;2081782;28;20186;-61
2023/03/25 03:46:34;;;;;;;14.27;10.75;;;;;;;8.60;100.00;100914.66;2081351;28;20226;-61
2023/03/25 03:47:40;;;;;;;15.43;10.00;;;;;;;8.56;100.00;100936.00;2080779;28;20556;-62
2023/03/25 03:49:03;;;;;;;16.15;10.68;;;;;;;8.12;100.00;100869.00;2081691;28;20440;-61
2023/03/25 03:50:13;;;;;;;17.37;10.53;;;;;;;8.47;100.00;100908.13;2080081;28;20207;-62
2023/03/25 03:51:20;;;;;;;15.37;10.40;;;;;;;7.63;100.00;100783.97;2081230;28;20447;-61
2023/03/25 03:52:27;;;;;;;19.47;11.40;;;;;;;7.47;100.00;100754.16;2080649;28;20440;-61
2023/03/25 03:53:39;;;;;;;17.63;10.37;;;;;;;8.42;100.00;100905.81;2081357;28;20448;-61
2023/03/25 03:54:48;;;;;;;17.48;10.75;;;;;;;8.41;100.00;100908.97;2081519;28;20428;-62
2023/03/25 03:56:12;;;;;;;16.33;10.20;;;;;;;8.41;100.00;100922.78;2081187;28;20192;-62
2023/03/25 03:57:28;;;;;;;15.57;11.13;;;;;;;7.59;100.00;100797.75;2078361;28;20182;-62
2023/03/25 03:58:34;;;;;;;16.00;11.30;;;;;;;8.34;100.00;100917.31;2081064;28;20161;-62
2023/03/25 03:59:52;;;;;;;17.38;10.63;;;;;;;8.37;100.00;100919.25;2080955;28;20260;-62
2023/03/25 04:01:10;;;;;;;17.23;11.20;;;;;;;8.37;100.00;100914.53;2080983;28;20165;-62
2023/03/25 04:02:23;;;;;;;15.38;10.98;;;;;;;8.36;100.00;100909.41;2076418;28;20203;-62
2023/03/25 04:03:33;;;;;;;17.10;11.55;;;;;;;8.26;100.00;100905.56;2081616;28;20193;-62
2023/03/25 04:04:37;;;;;;;18.40;11.85;;;;;;;8.38;100.00;100916.09;2081258;28;20220;-62
2023/03/25 04:05:42;;;;;;;15.65;11.40;;;;;;;8.40;100.00;100919.22;2080882;28;20631;-61
2023/03/25 04:07:01;;;;;;;16.48;10.95;;;;;;;8.42;100.00;100918.81;2081379;28;20189;-62
2023/03/25 04:08:11;;;;;;;14.93;10.55;;;;;;;8.42;100.00;100914.09;2080832;28;20213;-62
2023/03/25 04:09:39;;;;;;;16.45;11.00;;;;;;;8.42;100.00;100919.63;2081354;28;20196;-62
2023/03/25 04:11:11;;;;;;;16.05;10.38;;;;;;;8.33;100.00;100913.78;2080040;28;20199;-62
2023/03/25 04:12:19;;;;;;;17.25;10.93;;;;;;;8.21;100.00;100905.22;2073431;28;20225;-62
2023/03/25 04:13:22;;;;;;;19.35;10.00;;;;;;;7.78;100.00;100841.34;2081253;28;20184;-62
2023/03/25 04:14:23;;;;;;;15.93;9.63;;;;;;;8.30;100.00;100922.09;2081280;28;20216;-62
2023/03/25 04:15:23;;;;;;;17.40;10.37;;;;;;;8.02;100.00;100903.81;2080558;28;20188;-62
2023/03/25 04:16:24;;;;;;;18.30;10.43;;;;;;;8.10;100.00;100916.31;2081212;28;20188;-62
2023/03/25 04:17:24;;;;;;;13.23;10.20;;;;;;;8.14;100.00;100919.84;2081381;28;20228;-62
2023/03/25 04:18:27;;;;;;;18.83;10.53;;;;;;;8.17;100.00;100923.75;2080838;28;20199;-62
2023/03/25 04:19:27;;;;;;;18.42;11.07;;;;;;;8.15;100.00;100920.66;2080366;28;20223;-62
2023/03/25 04:20:32;;;;;;;15.90;11.30;;;;;;;8.13;100.00;100923.81;2080287;28;20182;-62
2023/03/25 04:21:33;;;;;;;17.15;10.70;;;;;;;8.12;100.00;100924.22;2080915;28;20201;-62
2023/03/25 04:22:36;;;;;;;17.03;11.70;;;;;;;8.11;100.00;100930.94;2074087;28;20255;-62
2023/03/25 04:23:40;;;;;;;13.43;10.45;;;;;;;8.03;100.00;100916.41;2080982;28;20189;-61
2023/03/25 04:24:40;;;;;;;16.95;10.55;;;;;;;8.07;100.00;100917.16;2080884;28;20197;-62
2023/03/25 04:25:42;;;;;;;17.47;12.53;;;;;;;8.08;100.00;100920.69;2080991;28;20199;-62
2023/03/25 04:26:43;;;;;;;18.88;12.85;;;;;;;7.70;100.00;100870.16;2081233;28;20247;-62
2023/03/25 04:27:47;;;;;;;15.48;10.85;;;;;;;8.10;100.00;100923.84;2080480;28;20198;-62
2023/03/25 04:28:48;;;;;;;15.05;10.80;;;;;;;8.07;100.00;100921.88;2080830;28;20662;-61
2023/03/25 04:29:50;;;;;;;14.37;11.17;;;;;;;8.07;100.00;100930.97;2080538;28;20611;-62
2023/03/25 04:30:54;;;;;;;18.50;10.82;;;;;;;8.08;100.00;100924.25;2080769;28;20599;-61
2023/03/25 04:31:56;;;;;;;15.82;10.98;;;;;;;8.02;100.00;100928.63;2081002;28;20230;-62
2023/03/25 04:32:56;;;;;;;19.90;12.23;;;;;;;7.97;100.00;100928.28;2080678;28;20180;-61
2023/03/25 04:33:59;;;;;;;23.10;12.23;;;;;;;7.98;100.00;100933.41;2080892;28;20179;-62
2023/03/25 04:35:00;;;;;;;20.13;14.18;;;;;;;7.99;100.00;100925.91;2081206;28;20177;-62
2023/03/25 04:36:00;;;;;;;21.37;16.83;;;;;;;8.00;100.00;100936.53;2080814;28;20177;-61
2023/03/25 04:37:01;;;;;;;21.30;12.70;;;;;;;8.01;100.00;100929.84;2080569;28;20197;-62
2023/03/25 04:38:02;;;;;;;16.95;12.25;;;;;;;8.04;100.00;100936.53;2080022;28;20198;-62
2023/03/25 04:39:03;;;;;;;16.60;11.57;;;;;;;7.96;100.00;100915.69;2081102;28;20205;-61
2023/03/25 04:40:08;;;;;;;18.63;12.45;;;;;;;8.10;100.00;100937.66;2080048;28;20717;-61
2023/03/25 04:41:09;;;;;;;18.02;11.70;;;;;;;8.10;100.00;100932.13;2080711;28;20189;-62
2023/03/25 04:42:12;;;;;;;16.05;12.32;;;;;;;8.13;100.00;100937.59;2080325;28;20643;-62
2023/03/25 04:43:16;;;;;;;18.83;12.45;;;;;;;7.37;100.00;100821.19;2080949;28;20315;-62
2023/03/25 04:44:17;;;;;;;16.38;12.38;;;;;;;8.13;100.00;100925.78;2080835;28;20571;-62
2023/03/25 04:45:18;;;;;;;22.40;11.97;;;;;;;8.14;100.00;100933.66;2081334;28;20212;-62
2023/03/25 04:46:19;;;;;;;19.00;13.00;;;;;;;8.20;100.00;100939.56;2080890;28;20177;-62
2023/03/25 04:47:23;;;;;;;17.53;12.27;;;;;;;8.27;100.00;100943.03;2080618;28;20199;-61
2023/03/25 04:48:28;;;;;;;20.10;11.98;;;;;;;8.28;100.00;100938.28;2080601;28;20181;-62
2023/03/25 04:49:29;;;;;;;17.33;12.23;;;;;;;8.30;100.00;100949.72;2080883;28;20195;-61
2023/03/25 04:50:30;;;;;;;21.97;12.53;;;;;;;8.28;100.00;100941.84;2080022;28;20681;-62
2023/03/25 04:51:31;;;;;;;19.67;13.35;;;;;;;8.32;100.00;100947.31;2083521;28;20190;-62
2023/03/25 04:52:33;;;;;;;20.05;12.98;;;;;;;8.31;100.00;100949.28;2087179;28;20183;-62
2023/03/25 04:53:33;;;;;;;23.27;13.93;;;;;;;8.19;100.00;100938.72;2080698;28;20252;-61
2023/03/25 04:54:34;;;;;;;20.50;12.80;;;;;;;8.25;100.00;100961.19;2080813;28;20225;-61
2023/03/25 04:55:35;;;;;;;22.40;12.60;;;;;;;8.17;100.00;100959.66;2080223;28;20189;-61
2023/03/25 04:56:36;;;;;;;23.87;13.10;;;;;;;8.18;100.00;100964.78;2080763;28;20626;-62
2023/03/25 04:57:36;;;;;;;22.27;15.10;;;;;;;8.13;100.00;100956.13;2080574;28;20265;-62
2023/03/25 04:58:37;;;;;;;20.07;14.30;;;;;;;8.12;100.00;100955.38;2081166;28;20185;-61